sensor_id;sensor_type;location;lat;lon;timestamp;P1;durP1;ratioP1;P2;durP2;ratioP2
68923;SDS011;55961;52.156;20.942;2022-10-16T00:01:10;20.27;;;11.00;;
68923;SDS011;55961;52.156;20.942;2022-10-16T00:03:38;18.70;;;11.25;;
68923;SDS011;55961;52.156;20.942;2022-10-16T00:06:05;19.13;;;11.32;;
68923;SDS011;55961;52.156;20.942;2022-10-16T00:08:32;31.53;;;17.17;;
68923;SDS011;55961;52.156;20.942;2022-10-16T00:11:05;20.23;;;11.52;;
68923;SDS011;55961;52.156;20.942;2022-10-16T00:13:38;22.52;;;12.77;;
68923;SDS011;55961;52.156;20.942;2022-10-16T00:16:06;23.58;;;13.32;;
68923;SDS011;55961;52.156;20.942;2022-10-16T00:18:32;27.60;;;16.55;;
68923;SDS011;55961;52.156;20.942;2022-10-16T00:21:02;24.40;;;14.57;;
68923;SDS011;55961;52.156;20.942;2022-10-16T00:23:31;21.20;;;13.57;;
68923;SDS011;55961;52.156;20.942;2022-10-16T00:25:58;22.30;;;14.25;;
68923;SDS011;55961;52.156;20.942;2022-10-16T00:28:26;21.20;;;13.70;;
68923;SDS011;55961;52.156;20.942;2022-10-16T00:30:52;22.05;;;13.20;;
68923;SDS011;55961;52.156;20.942;2022-10-16T00:33:19;22.83;;;12.83;;
68923;SDS011;55961;52.156;20.942;2022-10-16T00:35:45;20.27;;;12.32;;
68923;SDS011;55961;52.156;20.942;2022-10-16T00:38:11;20.98;;;12.98;;
68923;SDS011;55961;52.156;20.942;2022-10-16T00:40:37;24.73;;;12.38;;
68923;SDS011;55961;52.156;20.942;2022-10-16T00:43:07;22.67;;;12.30;;
68923;SDS011;55961;52.156;20.942;2022-10-16T00:45:37;22.73;;;12.90;;
68923;SDS011;55961;52.156;20.942;2022-10-16T00:48:03;21.10;;;12.30;;
68923;SDS011;55961;52.156;20.942;2022-10-16T00:50:30;24.52;;;12.48;;
68923;SDS011;55961;52.156;20.942;2022-10-16T00:52:58;25.13;;;11.97;;
68923;SDS011;55961;52.156;20.942;2022-10-16T00:55:26;21.90;;;12.50;;
68923;SDS011;55961;52.156;20.942;2022-10-16T00:57:53;25.58;;;12.75;;
68923;SDS011;55961;52.156;20.942;2022-10-16T01:00:21;22.77;;;12.38;;
68923;SDS011;55961;52.156;20.942;2022-10-16T01:02:58;23.40;;;12.57;;
68923;SDS011;55961;52.156;20.942;2022-10-16T01:05:28;23.27;;;13.77;;
68923;SDS011;55961;52.156;20.942;2022-10-16T01:10:35;22.10;;;13.23;;
68923;SDS011;55961;52.156;20.942;2022-10-16T01:15:47;23.83;;;13.18;;
68923;SDS011;55961;52.156;20.942;2022-10-16T01:18:42;22.97;;;12.60;;
68923;SDS011;55961;52.156;20.942;2022-10-16T01:24:31;22.70;;;13.50;;
68923;SDS011;55961;52.156;20.942;2022-10-16T01:34:58;22.40;;;12.55;;
68923;SDS011;55961;52.156;20.942;2022-10-16T01:37:38;20.98;;;12.20;;
68923;SDS011;55961;52.156;20.942;2022-10-16T01:40:12;22.13;;;13.13;;
68923;SDS011;55961;52.156;20.942;2022-10-16T01:42:41;24.47;;;13.57;;
68923;SDS011;55961;52.156;20.942;2022-10-16T01:45:12;23.02;;;13.05;;
68923;SDS011;55961;52.156;20.942;2022-10-16T01:47:43;41.53;;;16.17;;
68923;SDS011;55961;52.156;20.942;2022-10-16T01:50:10;27.92;;;17.33;;
68923;SDS011;55961;52.156;20.942;2022-10-16T01:52:40;23.40;;;14.00;;
68923;SDS011;55961;52.156;20.942;2022-10-16T01:55:10;22.60;;;13.47;;
68923;SDS011;55961;52.156;20.942;2022-10-16T01:57:40;23.52;;;13.68;;
68923;SDS011;55961;52.156;20.942;2022-10-16T02:00:11;25.13;;;15.27;;
68923;SDS011;55961;52.156;20.942;2022-10-16T02:02:39;27.08;;;14.57;;
68923;SDS011;55961;52.156;20.942;2022-10-16T02:05:10;24.05;;;13.77;;
68923;SDS011;55961;52.156;20.942;2022-10-16T02:07:58;24.97;;;15.10;;
68923;SDS011;55961;52.156;20.942;2022-10-16T02:10:24;26.15;;;13.35;;
68923;SDS011;55961;52.156;20.942;2022-10-16T02:15:49;26.02;;;14.18;;
68923;SDS011;55961;52.156;20.942;2022-10-16T02:18:14;24.70;;;14.20;;
68923;SDS011;55961;52.156;20.942;2022-10-16T02:21:24;28.27;;;14.20;;
68923;SDS011;55961;52.156;20.942;2022-10-16T02:23:47;25.25;;;14.55;;
68923;SDS011;55961;52.156;20.942;2022-10-16T02:29:25;25.65;;;14.00;;
68923;SDS011;55961;52.156;20.942;2022-10-16T02:31:54;25.23;;;13.70;;
68923;SDS011;55961;52.156;20.942;2022-10-16T02:34:23;22.80;;;14.00;;
68923;SDS011;55961;52.156;20.942;2022-10-16T02:36:51;26.35;;;14.60;;
68923;SDS011;55961;52.156;20.942;2022-10-16T02:39:20;26.33;;;15.27;;
68923;SDS011;55961;52.156;20.942;2022-10-16T02:41:46;26.52;;;15.63;;
68923;SDS011;55961;52.156;20.942;2022-10-16T02:44:12;24.88;;;14.15;;
68923;SDS011;55961;52.156;20.942;2022-10-16T02:46:39;26.20;;;15.03;;
68923;SDS011;55961;52.156;20.942;2022-10-16T02:49:04;25.38;;;15.13;;
68923;SDS011;55961;52.156;20.942;2022-10-16T02:51:31;23.77;;;14.00;;
68923;SDS011;55961;52.156;20.942;2022-10-16T02:53:57;25.07;;;15.20;;
68923;SDS011;55961;52.156;20.942;2022-10-16T02:56:23;23.38;;;14.10;;
68923;SDS011;55961;52.156;20.942;2022-10-16T02:58:49;25.73;;;15.27;;
68923;SDS011;55961;52.156;20.942;2022-10-16T03:01:15;30.23;;;16.40;;
68923;SDS011;55961;52.156;20.942;2022-10-16T03:03:42;33.08;;;18.63;;
68923;SDS011;55961;52.156;20.942;2022-10-16T03:06:08;33.35;;;18.30;;
68923;SDS011;55961;52.156;20.942;2022-10-16T03:08:33;36.03;;;21.52;;
68923;SDS011;55961;52.156;20.942;2022-10-16T03:10:59;30.80;;;16.20;;
68923;SDS011;55961;52.156;20.942;2022-10-16T03:13:25;23.67;;;14.75;;
68923;SDS011;55961;52.156;20.942;2022-10-16T03:15:51;24.02;;;14.15;;
68923;SDS011;55961;52.156;20.942;2022-10-16T03:18:17;25.47;;;14.73;;
68923;SDS011;55961;52.156;20.942;2022-10-16T03:20:43;22.60;;;13.52;;
68923;SDS011;55961;52.156;20.942;2022-10-16T03:23:09;26.30;;;17.17;;
68923;SDS011;55961;52.156;20.942;2022-10-16T03:25:35;24.70;;;14.88;;
68923;SDS011;55961;52.156;20.942;2022-10-16T03:28:01;23.90;;;13.87;;
68923;SDS011;55961;52.156;20.942;2022-10-16T03:30:27;24.35;;;13.82;;
68923;SDS011;55961;52.156;20.942;2022-10-16T03:32:52;24.40;;;13.98;;
68923;SDS011;55961;52.156;20.942;2022-10-16T03:35:20;21.08;;;12.50;;
68923;SDS011;55961;52.156;20.942;2022-10-16T03:37:46;23.17;;;11.97;;
68923;SDS011;55961;52.156;20.942;2022-10-16T03:40:12;22.48;;;13.32;;
68923;SDS011;55961;52.156;20.942;2022-10-16T03:42:38;23.92;;;13.52;;
68923;SDS011;55961;52.156;20.942;2022-10-16T03:45:04;21.75;;;13.23;;
68923;SDS011;55961;52.156;20.942;2022-10-16T03:47:30;32.20;;;16.20;;
68923;SDS011;55961;52.156;20.942;2022-10-16T03:49:58;26.75;;;17.38;;
68923;SDS011;55961;52.156;20.942;2022-10-16T03:52:25;24.17;;;13.30;;
68923;SDS011;55961;52.156;20.942;2022-10-16T03:54:51;24.13;;;14.30;;
68923;SDS011;55961;52.156;20.942;2022-10-16T03:57:17;20.47;;;12.93;;
68923;SDS011;55961;52.156;20.942;2022-10-16T03:59:43;22.40;;;13.27;;
68923;SDS011;55961;52.156;20.942;2022-10-16T04:02:08;21.85;;;12.52;;
68923;SDS011;55961;52.156;20.942;2022-10-16T04:04:35;24.00;;;14.60;;
68923;SDS011;55961;52.156;20.942;2022-10-16T04:07:01;24.23;;;13.98;;
68923;SDS011;55961;52.156;20.942;2022-10-16T04:09:27;24.63;;;15.80;;
68923;SDS011;55961;52.156;20.942;2022-10-16T04:11:52;25.25;;;14.85;;
68923;SDS011;55961;52.156;20.942;2022-10-16T04:14:18;26.40;;;15.43;;
68923;SDS011;55961;52.156;20.942;2022-10-16T04:16:44;27.27;;;14.75;;
68923;SDS011;55961;52.156;20.942;2022-10-16T04:19:10;27.02;;;15.75;;
68923;SDS011;55961;52.156;20.942;2022-10-16T04:21:36;28.40;;;16.77;;
68923;SDS011;55961;52.156;20.942;2022-10-16T04:24:02;31.75;;;19.17;;
68923;SDS011;55961;52.156;20.942;2022-10-16T04:26:28;26.67;;;16.45;;
68923;SDS011;55961;52.156;20.942;2022-10-16T04:28:54;28.52;;;14.88;;
68923;SDS011;55961;52.156;20.942;2022-10-16T04:31:20;23.63;;;14.30;;
68923;SDS011;55961;52.156;20.942;2022-10-16T04:33:46;23.60;;;14.95;;
68923;SDS011;55961;52.156;20.942;2022-10-16T04:36:12;29.02;;;17.00;;
68923;SDS011;55961;52.156;20.942;2022-10-16T04:38:39;28.08;;;16.65;;
68923;SDS011;55961;52.156;20.942;2022-10-16T04:41:05;25.23;;;14.27;;
68923;SDS011;55961;52.156;20.942;2022-10-16T04:43:32;25.30;;;15.70;;
68923;SDS011;55961;52.156;20.942;2022-10-16T04:45:58;27.92;;;16.42;;
68923;SDS011;55961;52.156;20.942;2022-10-16T04:48:25;23.80;;;14.77;;
68923;SDS011;55961;52.156;20.942;2022-10-16T04:50:50;24.37;;;13.70;;
68923;SDS011;55961;52.156;20.942;2022-10-16T04:53:16;23.17;;;14.77;;
68923;SDS011;55961;52.156;20.942;2022-10-16T04:55:42;25.52;;;14.65;;
68923;SDS011;55961;52.156;20.942;2022-10-16T04:58:09;26.48;;;14.45;;
68923;SDS011;55961;52.156;20.942;2022-10-16T05:00:35;26.07;;;14.80;;
68923;SDS011;55961;52.156;20.942;2022-10-16T05:03:01;26.40;;;14.55;;
68923;SDS011;55961;52.156;20.942;2022-10-16T05:05:31;24.63;;;14.55;;
68923;SDS011;55961;52.156;20.942;2022-10-16T05:07:57;22.80;;;13.95;;
68923;SDS011;55961;52.156;20.942;2022-10-16T05:10:22;22.03;;;13.70;;
68923;SDS011;55961;52.156;20.942;2022-10-16T05:12:48;25.27;;;14.25;;
68923;SDS011;55961;52.156;20.942;2022-10-16T05:15:14;25.98;;;15.43;;
68923;SDS011;55961;52.156;20.942;2022-10-16T05:17:40;30.95;;;15.70;;
68923;SDS011;55961;52.156;20.942;2022-10-16T05:20:06;28.97;;;17.83;;
68923;SDS011;55961;52.156;20.942;2022-10-16T05:22:32;28.33;;;16.30;;
68923;SDS011;55961;52.156;20.942;2022-10-16T05:24:58;25.60;;;14.35;;
68923;SDS011;55961;52.156;20.942;2022-10-16T05:27:24;25.87;;;15.73;;
68923;SDS011;55961;52.156;20.942;2022-10-16T05:29:50;25.70;;;15.65;;
68923;SDS011;55961;52.156;20.942;2022-10-16T05:32:16;27.02;;;17.05;;
68923;SDS011;55961;52.156;20.942;2022-10-16T05:34:43;31.83;;;17.47;;
68923;SDS011;55961;52.156;20.942;2022-10-16T05:37:10;31.05;;;18.48;;
68923;SDS011;55961;52.156;20.942;2022-10-16T05:39:40;27.60;;;17.95;;
68923;SDS011;55961;52.156;20.942;2022-10-16T05:42:06;32.67;;;18.35;;
68923;SDS011;55961;52.156;20.942;2022-10-16T05:44:32;43.23;;;23.60;;
68923;SDS011;55961;52.156;20.942;2022-10-16T05:46:58;28.65;;;16.75;;
68923;SDS011;55961;52.156;20.942;2022-10-16T05:49:24;30.02;;;18.02;;
68923;SDS011;55961;52.156;20.942;2022-10-16T05:51:50;28.15;;;17.17;;
68923;SDS011;55961;52.156;20.942;2022-10-16T05:54:15;27.70;;;17.03;;
68923;SDS011;55961;52.156;20.942;2022-10-16T05:56:41;26.27;;;16.05;;
68923;SDS011;55961;52.156;20.942;2022-10-16T05:59:07;28.90;;;16.40;;
68923;SDS011;55961;52.156;20.942;2022-10-16T06:01:33;26.50;;;14.65;;
68923;SDS011;55961;52.156;20.942;2022-10-16T06:04:00;29.52;;;15.10;;
68923;SDS011;55961;52.156;20.942;2022-10-16T06:06:26;24.55;;;15.52;;
68923;SDS011;55961;52.156;20.942;2022-10-16T06:08:54;28.08;;;16.17;;
68923;SDS011;55961;52.156;20.942;2022-10-16T06:11:22;25.40;;;14.63;;
68923;SDS011;55961;52.156;20.942;2022-10-16T06:13:53;25.33;;;14.23;;
68923;SDS011;55961;52.156;20.942;2022-10-16T06:16:22;25.35;;;15.23;;
68923;SDS011;55961;52.156;20.942;2022-10-16T06:18:50;24.65;;;14.60;;
68923;SDS011;55961;52.156;20.942;2022-10-16T06:21:18;23.95;;;15.50;;
68923;SDS011;55961;52.156;20.942;2022-10-16T06:23:45;22.80;;;14.57;;
68923;SDS011;55961;52.156;20.942;2022-10-16T06:26:13;21.63;;;14.82;;
68923;SDS011;55961;52.156;20.942;2022-10-16T06:28:42;24.35;;;13.88;;
68923;SDS011;55961;52.156;20.942;2022-10-16T06:31:08;24.33;;;13.77;;
68923;SDS011;55961;52.156;20.942;2022-10-16T06:33:36;22.60;;;13.40;;
68923;SDS011;55961;52.156;20.942;2022-10-16T06:36:03;28.33;;;13.95;;
68923;SDS011;55961;52.156;20.942;2022-10-16T06:38:31;23.67;;;15.18;;
68923;SDS011;55961;52.156;20.942;2022-10-16T06:40:57;22.60;;;13.05;;
68923;SDS011;55961;52.156;20.942;2022-10-16T06:43:23;29.50;;;15.07;;
68923;SDS011;55961;52.156;20.942;2022-10-16T06:45:53;29.17;;;16.53;;
68923;SDS011;55961;52.156;20.942;2022-10-16T06:48:20;22.92;;;14.88;;
68923;SDS011;55961;52.156;20.942;2022-10-16T06:51:03;22.83;;;13.68;;
68923;SDS011;55961;52.156;20.942;2022-10-16T06:53:32;23.42;;;14.05;;
68923;SDS011;55961;52.156;20.942;2022-10-16T06:56:33;23.23;;;14.70;;
68923;SDS011;55961;52.156;20.942;2022-10-16T06:58:53;24.77;;;14.40;;
68923;SDS011;55961;52.156;20.942;2022-10-16T07:01:20;24.58;;;15.60;;
68923;SDS011;55961;52.156;20.942;2022-10-16T07:03:47;23.80;;;14.20;;
68923;SDS011;55961;52.156;20.942;2022-10-16T07:06:15;27.45;;;15.38;;
68923;SDS011;55961;52.156;20.942;2022-10-16T07:08:46;24.25;;;13.77;;
68923;SDS011;55961;52.156;20.942;2022-10-16T07:11:13;20.57;;;12.87;;
68923;SDS011;55961;52.156;20.942;2022-10-16T07:13:44;24.85;;;13.60;;
68923;SDS011;55961;52.156;20.942;2022-10-16T07:16:18;22.27;;;12.85;;
68923;SDS011;55961;52.156;20.942;2022-10-16T07:18:46;22.05;;;12.88;;
68923;SDS011;55961;52.156;20.942;2022-10-16T07:21:15;24.02;;;13.38;;
68923;SDS011;55961;52.156;20.942;2022-10-16T07:23:42;23.27;;;14.00;;
68923;SDS011;55961;52.156;20.942;2022-10-16T07:26:11;21.92;;;12.48;;
68923;SDS011;55961;52.156;20.942;2022-10-16T07:28:37;20.27;;;12.30;;
68923;SDS011;55961;52.156;20.942;2022-10-16T07:31:05;22.98;;;12.77;;
68923;SDS011;55961;52.156;20.942;2022-10-16T07:33:33;27.47;;;14.97;;
68923;SDS011;55961;52.156;20.942;2022-10-16T07:36:00;20.02;;;11.70;;
68923;SDS011;55961;52.156;20.942;2022-10-16T07:38:26;21.80;;;12.43;;
68923;SDS011;55961;52.156;20.942;2022-10-16T07:40:55;20.40;;;12.15;;
68923;SDS011;55961;52.156;20.942;2022-10-16T07:43:25;19.77;;;13.13;;
68923;SDS011;55961;52.156;20.942;2022-10-16T07:45:52;19.73;;;12.33;;
68923;SDS011;55961;52.156;20.942;2022-10-16T07:48:18;22.83;;;12.45;;
68923;SDS011;55961;52.156;20.942;2022-10-16T07:50:47;19.67;;;12.07;;
68923;SDS011;55961;52.156;20.942;2022-10-16T07:53:13;20.20;;;12.35;;
68923;SDS011;55961;52.156;20.942;2022-10-16T07:55:40;20.63;;;12.38;;
68923;SDS011;55961;52.156;20.942;2022-10-16T07:58:06;18.77;;;11.10;;
68923;SDS011;55961;52.156;20.942;2022-10-16T08:00:32;18.80;;;11.60;;
68923;SDS011;55961;52.156;20.942;2022-10-16T08:03:03;17.02;;;11.30;;
68923;SDS011;55961;52.156;20.942;2022-10-16T08:05:30;17.47;;;10.87;;
68923;SDS011;55961;52.156;20.942;2022-10-16T08:07:57;17.60;;;11.23;;
68923;SDS011;55961;52.156;20.942;2022-10-16T08:10:24;18.25;;;10.93;;
68923;SDS011;55961;52.156;20.942;2022-10-16T08:12:51;15.25;;;11.35;;
68923;SDS011;55961;52.156;20.942;2022-10-16T08:15:18;18.38;;;10.90;;
68923;SDS011;55961;52.156;20.942;2022-10-16T08:17:55;18.67;;;9.90;;
68923;SDS011;55961;52.156;20.942;2022-10-16T08:20:26;15.83;;;10.90;;
68923;SDS011;55961;52.156;20.942;2022-10-16T08:22:53;17.52;;;10.35;;
68923;SDS011;55961;52.156;20.942;2022-10-16T08:25:20;18.10;;;10.02;;
68923;SDS011;55961;52.156;20.942;2022-10-16T08:27:46;16.23;;;11.07;;
68923;SDS011;55961;52.156;20.942;2022-10-16T08:30:14;15.48;;;9.88;;
68923;SDS011;55961;52.156;20.942;2022-10-16T08:32:40;16.23;;;10.00;;
68923;SDS011;55961;52.156;20.942;2022-10-16T08:35:09;16.92;;;10.55;;
68923;SDS011;55961;52.156;20.942;2022-10-16T08:37:38;14.77;;;9.43;;
68923;SDS011;55961;52.156;20.942;2022-10-16T08:40:07;16.33;;;10.43;;
68923;SDS011;55961;52.156;20.942;2022-10-16T08:45:30;18.90;;;9.80;;
68923;SDS011;55961;52.156;20.942;2022-10-16T08:48:25;15.30;;;9.93;;
68923;SDS011;55961;52.156;20.942;2022-10-16T08:51:32;15.93;;;10.55;;
68923;SDS011;55961;52.156;20.942;2022-10-16T08:54:04;18.40;;;11.02;;
68923;SDS011;55961;52.156;20.942;2022-10-16T08:56:36;16.83;;;10.30;;
68923;SDS011;55961;52.156;20.942;2022-10-16T08:59:02;19.53;;;10.57;;
68923;SDS011;55961;52.156;20.942;2022-10-16T09:01:41;14.38;;;9.85;;
68923;SDS011;55961;52.156;20.942;2022-10-16T09:04:39;12.77;;;8.55;;
68923;SDS011;55961;52.156;20.942;2022-10-16T09:07:10;19.03;;;10.57;;
68923;SDS011;55961;52.156;20.942;2022-10-16T09:13:10;15.38;;;9.52;;
68923;SDS011;55961;52.156;20.942;2022-10-16T09:16:10;16.63;;;9.52;;
68923;SDS011;55961;52.156;20.942;2022-10-16T09:18:41;15.50;;;9.10;;
68923;SDS011;55961;52.156;20.942;2022-10-16T09:21:25;13.27;;;7.77;;
68923;SDS011;55961;52.156;20.942;2022-10-16T09:23:57;16.10;;;9.68;;
68923;SDS011;55961;52.156;20.942;2022-10-16T09:26:29;14.07;;;9.57;;
68923;SDS011;55961;52.156;20.942;2022-10-16T09:28:57;18.00;;;10.13;;
68923;SDS011;55961;52.156;20.942;2022-10-16T09:31:22;17.07;;;10.77;;
68923;SDS011;55961;52.156;20.942;2022-10-16T09:33:50;18.20;;;10.57;;
68923;SDS011;55961;52.156;20.942;2022-10-16T09:36:25;15.52;;;10.20;;
68923;SDS011;55961;52.156;20.942;2022-10-16T09:39:03;16.27;;;10.43;;
68923;SDS011;55961;52.156;20.942;2022-10-16T09:41:30;16.33;;;10.05;;
68923;SDS011;55961;52.156;20.942;2022-10-16T09:44:00;15.30;;;11.23;;
68923;SDS011;55961;52.156;20.942;2022-10-16T09:46:28;16.88;;;9.80;;
68923;SDS011;55961;52.156;20.942;2022-10-16T09:48:55;15.50;;;10.25;;
68923;SDS011;55961;52.156;20.942;2022-10-16T09:53:57;14.48;;;9.63;;
68923;SDS011;55961;52.156;20.942;2022-10-16T09:56:31;14.53;;;9.93;;
68923;SDS011;55961;52.156;20.942;2022-10-16T09:58:59;14.80;;;10.45;;
68923;SDS011;55961;52.156;20.942;2022-10-16T10:01:38;14.48;;;9.18;;
68923;SDS011;55961;52.156;20.942;2022-10-16T10:04:07;14.73;;;9.77;;
68923;SDS011;55961;52.156;20.942;2022-10-16T10:11:55;17.13;;;9.90;;
68923;SDS011;55961;52.156;20.942;2022-10-16T10:14:35;16.63;;;9.70;;
68923;SDS011;55961;52.156;20.942;2022-10-16T10:17:13;13.45;;;9.55;;
68923;SDS011;55961;52.156;20.942;2022-10-16T10:19:44;14.13;;;9.25;;
68923;SDS011;55961;52.156;20.942;2022-10-16T10:24:57;14.00;;;8.60;;
68923;SDS011;55961;52.156;20.942;2022-10-16T10:33:18;15.40;;;8.68;;
68923;SDS011;55961;52.156;20.942;2022-10-16T10:42:45;16.05;;;9.27;;
68923;SDS011;55961;52.156;20.942;2022-10-16T10:50:56;13.83;;;8.00;;
68923;SDS011;55961;52.156;20.942;2022-10-16T10:56:22;14.23;;;8.15;;
68923;SDS011;55961;52.156;20.942;2022-10-16T11:01:56;18.77;;;10.80;;
68923;SDS011;55961;52.156;20.942;2022-10-16T11:07:26;12.13;;;8.50;;
68923;SDS011;55961;52.156;20.942;2022-10-16T11:10:05;11.95;;;7.45;;
68923;SDS011;55961;52.156;20.942;2022-10-16T11:12:40;12.77;;;7.95;;
68923;SDS011;55961;52.156;20.942;2022-10-16T11:17:54;17.00;;;9.10;;
68923;SDS011;55961;52.156;20.942;2022-10-16T11:20:32;13.25;;;9.15;;
68923;SDS011;55961;52.156;20.942;2022-10-16T11:23:37;15.18;;;8.20;;
68923;SDS011;55961;52.156;20.942;2022-10-16T11:26:04;15.10;;;9.05;;
68923;SDS011;55961;52.156;20.942;2022-10-16T11:29:11;12.57;;;8.43;;
68923;SDS011;55961;52.156;20.942;2022-10-16T11:31:47;16.13;;;8.83;;
68923;SDS011;55961;52.156;20.942;2022-10-16T11:36:56;13.80;;;9.45;;
68923;SDS011;55961;52.156;20.942;2022-10-16T11:39:38;12.20;;;9.38;;
68923;SDS011;55961;52.156;20.942;2022-10-16T11:42:19;13.27;;;8.63;;
68923;SDS011;55961;52.156;20.942;2022-10-16T11:45:22;14.67;;;8.80;;
68923;SDS011;55961;52.156;20.942;2022-10-16T11:47:58;11.63;;;8.10;;
68923;SDS011;55961;52.156;20.942;2022-10-16T11:50:33;12.35;;;8.60;;
68923;SDS011;55961;52.156;20.942;2022-10-16T11:56:12;14.05;;;8.90;;
68923;SDS011;55961;52.156;20.942;2022-10-16T12:07:00;14.60;;;8.95;;
68923;SDS011;55961;52.156;20.942;2022-10-16T12:09:29;17.50;;;8.63;;
68923;SDS011;55961;52.156;20.942;2022-10-16T12:11:57;14.53;;;9.20;;
68923;SDS011;55961;52.156;20.942;2022-10-16T12:17:04;11.82;;;8.30;;
68923;SDS011;55961;52.156;20.942;2022-10-16T12:19:57;13.80;;;8.23;;
68923;SDS011;55961;52.156;20.942;2022-10-16T12:22:49;17.73;;;9.75;;
68923;SDS011;55961;52.156;20.942;2022-10-16T12:27:58;11.90;;;7.78;;
68923;SDS011;55961;52.156;20.942;2022-10-16T12:30:33;13.73;;;9.57;;
68923;SDS011;55961;52.156;20.942;2022-10-16T12:33:02;15.55;;;10.93;;
68923;SDS011;55961;52.156;20.942;2022-10-16T12:35:31;16.60;;;10.00;;
68923;SDS011;55961;52.156;20.942;2022-10-16T12:40:46;12.20;;;7.75;;
68923;SDS011;55961;52.156;20.942;2022-10-16T12:43:25;13.23;;;8.30;;
68923;SDS011;55961;52.156;20.942;2022-10-16T12:46:00;11.57;;;7.80;;
68923;SDS011;55961;52.156;20.942;2022-10-16T12:48:49;12.70;;;7.88;;
68923;SDS011;55961;52.156;20.942;2022-10-16T13:16:17;15.20;;;7.63;;
68923;SDS011;55961;52.156;20.942;2022-10-16T13:18:54;11.83;;;7.53;;
68923;SDS011;55961;52.156;20.942;2022-10-16T13:26:43;12.23;;;8.05;;
68923;SDS011;55961;52.156;20.942;2022-10-16T13:29:16;13.15;;;7.43;;
68923;SDS011;55961;52.156;20.942;2022-10-16T13:31:45;10.17;;;5.53;;
68923;SDS011;55961;52.156;20.942;2022-10-16T13:34:17;12.77;;;7.10;;
68923;SDS011;55961;52.156;20.942;2022-10-16T13:36:48;11.77;;;6.60;;
68923;SDS011;55961;52.156;20.942;2022-10-16T13:39:28;12.13;;;7.03;;
68923;SDS011;55961;52.156;20.942;2022-10-16T13:42:04;13.45;;;7.43;;
68923;SDS011;55961;52.156;20.942;2022-10-16T13:44:43;9.47;;;6.93;;
68923;SDS011;55961;52.156;20.942;2022-10-16T13:47:18;11.63;;;7.75;;
68923;SDS011;55961;52.156;20.942;2022-10-16T13:52:43;14.30;;;7.70;;
68923;SDS011;55961;52.156;20.942;2022-10-16T13:55:13;13.30;;;8.43;;
68923;SDS011;55961;52.156;20.942;2022-10-16T13:57:40;13.87;;;8.07;;
68923;SDS011;55961;52.156;20.942;2022-10-16T14:02:53;12.23;;;6.82;;
68923;SDS011;55961;52.156;20.942;2022-10-16T14:05:23;12.73;;;8.25;;
68923;SDS011;55961;52.156;20.942;2022-10-16T14:07:50;13.13;;;8.27;;
68923;SDS011;55961;52.156;20.942;2022-10-16T14:10:21;13.77;;;8.30;;
68923;SDS011;55961;52.156;20.942;2022-10-16T14:13:02;13.27;;;8.18;;
68923;SDS011;55961;52.156;20.942;2022-10-16T14:15:30;14.20;;;8.07;;
68923;SDS011;55961;52.156;20.942;2022-10-16T14:17:59;12.07;;;7.43;;
68923;SDS011;55961;52.156;20.942;2022-10-16T14:20:26;12.88;;;8.05;;
68923;SDS011;55961;52.156;20.942;2022-10-16T14:22:59;12.47;;;8.23;;
68923;SDS011;55961;52.156;20.942;2022-10-16T14:25:27;12.00;;;8.23;;
68923;SDS011;55961;52.156;20.942;2022-10-16T14:28:15;12.75;;;7.78;;
68923;SDS011;55961;52.156;20.942;2022-10-16T14:30:53;13.00;;;7.95;;
68923;SDS011;55961;52.156;20.942;2022-10-16T14:36:02;15.00;;;9.10;;
68923;SDS011;55961;52.156;20.942;2022-10-16T14:38:35;13.95;;;9.65;;
68923;SDS011;55961;52.156;20.942;2022-10-16T14:41:05;13.65;;;10.00;;
68923;SDS011;55961;52.156;20.942;2022-10-16T14:43:33;13.75;;;9.32;;
68923;SDS011;55961;52.156;20.942;2022-10-16T14:46:14;13.57;;;9.75;;
68923;SDS011;55961;52.156;20.942;2022-10-16T14:49:04;14.20;;;10.43;;
68923;SDS011;55961;52.156;20.942;2022-10-16T14:51:50;15.68;;;11.18;;
68923;SDS011;55961;52.156;20.942;2022-10-16T14:54:18;14.90;;;10.18;;
68923;SDS011;55961;52.156;20.942;2022-10-16T14:56:50;17.98;;;9.90;;
68923;SDS011;55961;52.156;20.942;2022-10-16T14:59:40;17.10;;;10.15;;
68923;SDS011;55961;52.156;20.942;2022-10-16T15:02:33;18.37;;;12.07;;
68923;SDS011;55961;52.156;20.942;2022-10-16T15:05:11;14.00;;;9.90;;
68923;SDS011;55961;52.156;20.942;2022-10-16T15:07:41;14.95;;;9.32;;
68923;SDS011;55961;52.156;20.942;2022-10-16T15:10:07;15.15;;;10.18;;
68923;SDS011;55961;52.156;20.942;2022-10-16T15:12:33;14.37;;;10.13;;
68923;SDS011;55961;52.156;20.942;2022-10-16T15:14:59;15.05;;;10.23;;
68923;SDS011;55961;52.156;20.942;2022-10-16T15:17:25;15.48;;;9.90;;
68923;SDS011;55961;52.156;20.942;2022-10-16T15:19:50;19.43;;;9.77;;
68923;SDS011;55961;52.156;20.942;2022-10-16T15:22:17;16.10;;;9.88;;
68923;SDS011;55961;52.156;20.942;2022-10-16T15:24:43;15.02;;;9.32;;
68923;SDS011;55961;52.156;20.942;2022-10-16T15:27:11;14.27;;;9.55;;
68923;SDS011;55961;52.156;20.942;2022-10-16T15:29:36;17.77;;;10.97;;
68923;SDS011;55961;52.156;20.942;2022-10-16T15:32:02;15.60;;;9.90;;
68923;SDS011;55961;52.156;20.942;2022-10-16T15:34:28;16.63;;;10.27;;
68923;SDS011;55961;52.156;20.942;2022-10-16T15:36:54;16.42;;;10.48;;
68923;SDS011;55961;52.156;20.942;2022-10-16T15:39:22;17.45;;;11.18;;
68923;SDS011;55961;52.156;20.942;2022-10-16T15:41:48;15.70;;;10.82;;
68923;SDS011;55961;52.156;20.942;2022-10-16T15:44:19;16.90;;;11.00;;
68923;SDS011;55961;52.156;20.942;2022-10-16T15:46:46;18.13;;;10.93;;
68923;SDS011;55961;52.156;20.942;2022-10-16T15:49:12;15.55;;;11.38;;
68923;SDS011;55961;52.156;20.942;2022-10-16T15:51:39;21.75;;;12.80;;
68923;SDS011;55961;52.156;20.942;2022-10-16T15:54:06;22.77;;;14.32;;
68923;SDS011;55961;52.156;20.942;2022-10-16T15:56:32;17.93;;;11.27;;
68923;SDS011;55961;52.156;20.942;2022-10-16T15:58:59;16.88;;;10.30;;
68923;SDS011;55961;52.156;20.942;2022-10-16T16:01:26;31.55;;;16.88;;
68923;SDS011;55961;52.156;20.942;2022-10-16T16:03:53;48.95;;;25.23;;
68923;SDS011;55961;52.156;20.942;2022-10-16T16:06:20;33.87;;;19.60;;
68923;SDS011;55961;52.156;20.942;2022-10-16T16:08:46;26.67;;;15.38;;
68923;SDS011;55961;52.156;20.942;2022-10-16T16:11:13;20.67;;;13.15;;
68923;SDS011;55961;52.156;20.942;2022-10-16T16:13:40;18.48;;;12.13;;
68923;SDS011;55961;52.156;20.942;2022-10-16T16:16:07;17.40;;;10.93;;
68923;SDS011;55961;52.156;20.942;2022-10-16T16:18:35;17.25;;;11.52;;
68923;SDS011;55961;52.156;20.942;2022-10-16T16:21:01;18.63;;;12.73;;
68923;SDS011;55961;52.156;20.942;2022-10-16T16:23:27;21.02;;;14.82;;
68923;SDS011;55961;52.156;20.942;2022-10-16T16:26:03;27.95;;;19.38;;
68923;SDS011;55961;52.156;20.942;2022-10-16T16:28:34;22.77;;;16.47;;
68923;SDS011;55961;52.156;20.942;2022-10-16T16:31:01;21.00;;;15.32;;
68923;SDS011;55961;52.156;20.942;2022-10-16T16:33:27;20.33;;;14.80;;
68923;SDS011;55961;52.156;20.942;2022-10-16T16:35:56;20.42;;;14.52;;
68923;SDS011;55961;52.156;20.942;2022-10-16T16:38:23;24.00;;;14.68;;
68923;SDS011;55961;52.156;20.942;2022-10-16T16:40:49;26.00;;;15.27;;